createdAt,value
2023-02-17T00:01:36.148Z,11.45
2023-02-17T00:04:04.432Z,11.46
2023-02-17T00:06:32.579Z,11.22
2023-02-17T00:09:01.761Z,11.37
2023-02-17T00:11:31.170Z,11.40
2023-02-17T00:14:00.293Z,11.42
2023-02-17T00:16:28.990Z,11.37
2023-02-17T00:19:01.110Z,11.36
2023-02-17T00:21:31.391Z,11.46
2023-02-17T00:24:00.097Z,11.51
2023-02-17T00:26:28.159Z,11.42
2023-02-17T00:28:59.158Z,11.41
2023-02-17T00:31:27.089Z,11.40
2023-02-17T00:33:56.398Z,11.36
2023-02-17T00:36:26.155Z,11.37
2023-02-17T00:38:56.485Z,11.32
2023-02-17T00:41:26.217Z,11.43
2023-02-17T00:43:54.340Z,11.49
2023-02-17T00:46:25.954Z,11.44
2023-02-17T00:48:54.517Z,11.35
2023-02-17T00:51:22.735Z,11.35
2023-02-17T00:53:51.046Z,11.54
2023-02-17T00:56:18.881Z,11.42
2023-02-17T00:58:46.733Z,11.35
2023-02-17T01:01:15.059Z,11.35
2023-02-17T01:03:45.255Z,11.30
2023-02-17T01:06:35.313Z,11.38
2023-02-17T01:09:05.112Z,11.35
2023-02-17T01:11:35.709Z,11.37
2023-02-17T01:14:06.288Z,11.43
2023-02-17T01:16:38.373Z,11.32
2023-02-17T01:19:11.570Z,11.44
2023-02-17T01:21:40.694Z,11.44
2023-02-17T01:24:13.599Z,11.44
2023-02-17T01:26:41.604Z,11.42
2023-02-17T01:29:09.442Z,11.43
2023-02-17T01:31:37.548Z,11.51
2023-02-17T01:34:07.388Z,11.47
2023-02-17T01:36:39.012Z,11.38
2023-02-17T01:39:06.867Z,11.37
2023-02-17T01:41:34.684Z,11.38
2023-02-17T01:44:12.611Z,11.49
2023-02-17T01:46:43.591Z,11.41
2023-02-17T01:49:30.440Z,11.52
2023-02-17T01:52:06.387Z,11.44
2023-02-17T01:54:42.606Z,11.51
2023-02-17T01:57:15.205Z,11.51
2023-02-17T01:59:45.021Z,11.46
2023-02-17T02:02:14.218Z,11.40
2023-02-17T02:04:51.271Z,11.55
2023-02-17T02:07:26.336Z,11.46
2023-02-17T02:09:57.400Z,11.49
2023-02-17T02:12:29.571Z,11.53
2023-02-17T02:15:01.432Z,11.57
2023-02-17T02:17:44.624Z,11.57
2023-02-17T02:20:41.970Z,11.51
2023-02-17T02:23:45.086Z,11.58
2023-02-17T02:27:25.630Z,11.53
2023-02-17T02:30:45.258Z,11.59
2023-02-17T02:33:24.271Z,11.65
2023-02-17T02:36:03.551Z,11.62
2023-02-17T02:38:41.796Z,11.56
2023-02-17T02:41:17.930Z,11.52
2023-02-17T02:43:47.956Z,11.57
2023-02-17T02:46:16.309Z,11.55
2023-02-17T02:48:47.054Z,11.52
2023-02-17T02:51:41.793Z,11.67
2023-02-17T02:54:26.874Z,11.73
2023-02-17T02:57:16.063Z,11.82
2023-02-17T03:00:04.630Z,11.81
2023-02-17T03:02:44.729Z,11.77
2023-02-17T03:05:24.182Z,11.70
2023-02-17T03:08:00.643Z,11.76
2023-02-17T03:10:28.926Z,11.80
2023-02-17T03:12:58.166Z,11.84
2023-02-17T03:15:31.784Z,11.84
2023-02-17T03:18:02.692Z,11.86
2023-02-17T03:20:38.909Z,11.91
2023-02-17T03:23:07.396Z,11.88
2023-02-17T03:25:35.692Z,11.89
2023-02-17T03:28:04.129Z,11.93
2023-02-17T03:30:32.084Z,11.86
2023-02-17T03:32:59.812Z,11.86
2023-02-17T03:35:27.635Z,11.98
2023-02-17T03:37:56.783Z,11.95
2023-02-17T03:40:24.614Z,11.88
2023-02-17T03:42:52.450Z,11.99
2023-02-17T03:45:20.225Z,12.04
2023-02-17T03:47:48.219Z,11.95
2023-02-17T03:50:16.433Z,12.03
2023-02-17T03:52:45.523Z,12.08
2023-02-17T03:55:14.683Z,12.02
2023-02-17T03:57:42.625Z,12.02
2023-02-17T04:00:12.045Z,12.10
2023-02-17T04:02:44.194Z,12.15
2023-02-17T04:05:12.124Z,12.08
2023-02-17T04:07:40.092Z,12.07
2023-02-17T04:10:09.812Z,12.08
2023-02-17T04:12:38.993Z,12.07
2023-02-17T04:15:07.793Z,12.09
2023-02-17T04:17:36.350Z,12.11
2023-02-17T04:20:06.952Z,12.12
2023-02-17T04:22:34.759Z,12.10
2023-02-17T04:25:02.559Z,12.14
2023-02-17T04:27:30.451Z,12.09
2023-02-17T04:29:59.672Z,12.14
2023-02-17T04:32:27.517Z,12.16
2023-02-17T04:34:55.361Z,12.15
2023-02-17T04:37:23.423Z,12.14
2023-02-17T04:39:51.290Z,12.09
2023-02-17T04:42:19.099Z,12.15
2023-02-17T04:44:46.852Z,12.14
2023-02-17T04:47:15.993Z,12.16
2023-02-17T04:49:43.871Z,12.17
2023-02-17T04:52:11.675Z,12.18
2023-02-17T04:54:39.437Z,12.04
2023-02-17T04:57:07.335Z,12.00
2023-02-17T04:59:35.449Z,12.07
2023-02-17T05:02:03.743Z,12.08
2023-02-17T05:04:33.136Z,12.10
2023-02-17T05:07:00.977Z,12.12
2023-02-17T05:09:28.944Z,12.03
2023-02-17T05:11:57.377Z,12.01
2023-02-17T05:14:25.472Z,12.08
2023-02-17T05:16:53.390Z,11.96
2023-02-17T05:19:21.317Z,11.90
2023-02-17T05:21:51.305Z,11.97
2023-02-17T05:24:19.099Z,11.93
2023-02-17T05:26:46.891Z,11.90
2023-02-17T05:29:14.695Z,11.75
2023-02-17T05:31:42.758Z,11.77
2023-02-17T05:34:10.621Z,11.91
2023-02-17T05:36:38.429Z,11.89
2023-02-17T05:39:08.944Z,11.98
2023-02-17T05:41:36.794Z,12.13
2023-02-17T05:44:05.053Z,12.11
2023-02-17T05:46:32.981Z,12.03
2023-02-17T05:49:00.837Z,12.08
2023-02-17T05:51:28.658Z,12.10
2023-02-17T05:53:56.548Z,12.07
2023-02-17T05:56:25.682Z,12.07
2023-02-17T05:58:53.455Z,12.02
2023-02-17T06:01:21.601Z,11.95
2023-02-17T06:03:49.416Z,11.98
2023-02-17T06:06:17.261Z,11.92
2023-02-17T06:08:45.318Z,11.91
2023-02-17T06:11:13.172Z,11.96
2023-02-17T06:13:42.475Z,11.93
2023-02-17T06:16:10.524Z,11.96
2023-02-17T06:18:38.395Z,11.98
2023-02-17T06:21:06.454Z,12.01
2023-02-17T06:23:34.450Z,11.89
2023-02-17T06:26:02.280Z,11.87
2023-02-17T06:28:29.980Z,12.00
2023-02-17T06:30:59.189Z,11.98
2023-02-17T06:33:26.989Z,12.01
2023-02-17T06:35:54.820Z,12.02
2023-02-17T06:38:22.858Z,11.98
2023-02-17T06:40:50.675Z,11.91
2023-02-17T06:43:18.393Z,11.85
2023-02-17T06:45:46.589Z,11.78
2023-02-17T06:48:15.733Z,11.78
2023-02-17T06:50:43.619Z,11.87
2023-02-17T06:53:11.862Z,11.80
2023-02-17T06:55:39.710Z,11.84
2023-02-17T06:58:08.211Z,11.87
2023-02-17T07:00:35.983Z,11.82
2023-02-17T07:03:03.940Z,11.90
2023-02-17T07:05:35.179Z,11.83
2023-02-17T07:08:05.001Z,11.78
2023-02-17T07:10:32.967Z,11.78
2023-02-17T07:13:00.864Z,11.88
2023-02-17T07:15:28.747Z,11.80
2023-02-17T07:17:56.495Z,11.77
2023-02-17T07:20:24.442Z,11.74
2023-02-17T07:22:53.563Z,11.76
2023-02-17T07:25:21.426Z,11.59
2023-02-17T07:27:49.245Z,11.53
2023-02-17T07:30:17.622Z,11.55
2023-02-17T07:32:45.527Z,11.68
2023-02-17T07:35:13.355Z,11.70
2023-02-17T07:37:41.179Z,11.72
2023-02-17T07:40:11.828Z,11.81
2023-02-17T07:42:39.735Z,11.71
2023-02-17T07:45:08.452Z,11.71
2023-02-17T07:47:36.317Z,11.65
2023-02-17T07:50:05.044Z,11.74
2023-02-17T07:52:32.876Z,11.85
2023-02-17T07:55:00.733Z,11.83
2023-02-17T07:57:30.481Z,11.81
2023-02-17T07:59:58.358Z,11.86
2023-02-17T08:02:26.538Z,11.99
2023-02-17T08:04:54.457Z,12.01
2023-02-17T08:07:22.242Z,11.98
2023-02-17T08:10:08.651Z,11.91
2023-02-17T08:13:09.843Z,11.98
2023-02-17T08:15:37.700Z,12.07
2023-02-17T08:18:06.367Z,11.97
2023-02-17T08:20:35.302Z,12.06
2023-02-17T08:23:03.705Z,12.20
2023-02-17T08:25:33.414Z,12.07
2023-02-17T08:28:05.695Z,12.15
2023-02-17T08:30:36.363Z,11.96
2023-02-17T08:33:04.871Z,11.98
2023-02-17T08:35:32.917Z,12.13
2023-02-17T08:38:00.647Z,12.11
2023-02-17T08:40:29.168Z,12.20
2023-02-17T08:42:57.060Z,12.25
2023-02-17T08:45:26.365Z,12.30
2023-02-17T08:47:54.095Z,12.35
2023-02-17T08:50:23.667Z,12.24
2023-02-17T08:52:51.476Z,12.17
2023-02-17T08:55:20.277Z,11.98
2023-02-17T08:57:48.040Z,12.20
2023-02-17T09:00:18.305Z,12.21
2023-02-17T09:02:47.668Z,12.19
2023-02-17T09:05:15.563Z,12.22
2023-02-17T09:07:43.515Z,12.14
2023-02-17T09:10:13.211Z,12.19
2023-02-17T09:12:41.585Z,12.24
2023-02-17T09:15:09.871Z,12.37
2023-02-17T09:17:40.775Z,12.32
2023-02-17T09:20:23.853Z,12.19
2023-02-17T09:22:52.884Z,12.34
2023-02-17T09:25:20.895Z,12.46
2023-02-17T09:27:49.148Z,12.39
2023-02-17T09:30:17.328Z,12.46
2023-02-17T09:32:45.179Z,12.46
2023-02-17T09:35:16.997Z,12.50
2023-02-17T09:37:45.623Z,12.67
2023-02-17T09:40:20.368Z,12.55
2023-02-17T09:42:49.555Z,12.52
2023-02-17T09:45:26.054Z,12.68
2023-02-17T09:48:00.431Z,12.79
2023-02-17T09:50:43.756Z,12.83
2023-02-17T09:53:23.873Z,12.85
2023-02-17T09:55:55.319Z,12.79
2023-02-17T09:58:34.033Z,12.83
2023-02-17T10:01:06.960Z,12.83
2023-02-17T10:03:41.416Z,12.98
2023-02-17T10:06:16.793Z,12.85
2023-02-17T10:08:53.864Z,12.79
2023-02-17T10:11:32.291Z,12.89
2023-02-17T10:14:05.904Z,12.88
2023-02-17T10:16:44.100Z,13.07
2023-02-17T10:19:19.570Z,13.10
2023-02-17T10:21:58.873Z,12.92
2023-02-17T10:24:27.153Z,13.13
2023-02-17T10:27:22.755Z,13.27
2023-02-17T10:30:15.034Z,13.47
2023-02-17T10:33:01.318Z,13.42
2023-02-17T10:35:52.755Z,13.72
2023-02-17T10:38:46.042Z,13.72
2023-02-17T10:41:20.926Z,13.58
2023-02-17T10:43:50.573Z,13.66
2023-02-17T10:46:31.256Z,13.60
2023-02-17T10:49:00.374Z,13.70
2023-02-17T10:51:31.765Z,13.67
2023-02-17T10:54:08.231Z,13.87
2023-02-17T10:56:41.775Z,14.00
2023-02-17T10:59:21.850Z,13.87
2023-02-17T11:01:50.902Z,13.75
2023-02-17T11:04:18.982Z,13.89
2023-02-17T11:06:51.834Z,13.97
2023-02-17T11:09:30.642Z,13.91
2023-02-17T11:12:06.058Z,13.92
2023-02-17T11:14:43.641Z,13.88
2023-02-17T11:17:21.000Z,13.96
2023-02-17T11:19:58.579Z,13.87
2023-02-17T11:22:33.954Z,13.91
2023-02-17T11:25:08.241Z,13.86
2023-02-17T11:27:36.308Z,13.75
2023-02-17T11:30:15.983Z,13.91
2023-02-17T11:32:47.822Z,14.21
2023-02-17T11:35:42.718Z,14.18
2023-02-17T11:38:14.567Z,13.89
2023-02-17T11:40:58.680Z,14.04
2023-02-17T11:43:28.796Z,14.14
2023-02-17T11:46:24.178Z,14.02
2023-02-17T11:49:55.510Z,14.16
2023-02-17T11:52:41.027Z,14.06
2023-02-17T11:55:23.826Z,13.93
2023-02-17T11:58:15.406Z,13.86
2023-02-17T12:00:56.039Z,14.09
2023-02-17T12:04:04.354Z,13.88
2023-02-17T12:06:43.738Z,13.83
2023-02-17T12:09:26.093Z,13.75
2023-02-17T12:12:04.123Z,13.66
2023-02-17T12:14:58.646Z,13.66
2023-02-17T12:17:43.279Z,13.65
2023-02-17T12:20:42.104Z,13.87
2023-02-17T12:23:35.886Z,13.67
2023-02-17T12:26:13.917Z,13.66
2023-02-17T12:28:59.706Z,13.63
2023-02-17T12:32:06.001Z,13.74
2023-02-17T12:34:41.898Z,13.68
2023-02-17T12:37:23.982Z,13.62
2023-02-17T12:39:57.003Z,13.70
2023-02-17T12:42:33.831Z,13.72
2023-02-17T12:45:07.877Z,13.47
2023-02-17T12:47:50.287Z,13.44
2023-02-17T12:50:27.429Z,13.43
2023-02-17T12:53:02.607Z,13.48
2023-02-17T12:55:41.669Z,13.49
2023-02-17T12:58:17.975Z,13.49
2023-02-17T13:00:50.548Z,13.46
2023-02-17T13:03:20.408Z,13.54
2023-02-17T13:06:00.617Z,13.62
2023-02-17T13:08:40.014Z,13.50
2023-02-17T13:11:13.561Z,13.38
2023-02-17T13:13:42.262Z,13.32
2023-02-17T13:16:14.466Z,13.24
2023-02-17T13:18:46.736Z,13.04
2023-02-17T13:21:32.090Z,12.96
2023-02-17T13:24:03.905Z,12.87
2023-02-17T13:26:34.088Z,12.66
2023-02-17T13:29:35.741Z,12.61
2023-02-17T13:32:07.059Z,12.35
2023-02-17T13:34:42.475Z,12.34
2023-02-17T13:37:28.210Z,12.22
2023-02-17T13:39:56.580Z,12.22
2023-02-17T13:42:38.267Z,12.18
2023-02-17T13:45:25.749Z,12.18
2023-02-17T13:47:57.378Z,12.23
2023-02-17T13:50:33.170Z,12.17
2023-02-17T13:53:02.628Z,12.07
2023-02-17T13:55:31.084Z,12.09
2023-02-17T13:58:00.254Z,12.16
2023-02-17T14:00:30.862Z,12.18
2023-02-17T14:03:06.218Z,12.10
2023-02-17T14:05:44.206Z,12.12
2023-02-17T14:08:18.568Z,12.19
2023-02-17T14:10:47.169Z,12.26
2023-02-17T14:13:15.652Z,12.18
2023-02-17T14:15:53.958Z,12.12
2023-02-17T14:18:32.657Z,12.33
2023-02-17T14:21:10.473Z,12.30
2023-02-17T14:23:54.226Z,12.16
2023-02-17T14:26:32.510Z,12.20
2023-02-17T14:29:03.623Z,12.31
2023-02-17T14:31:39.776Z,12.18
2023-02-17T14:34:26.019Z,12.29
2023-02-17T14:37:09.141Z,12.31
2023-02-17T14:39:38.142Z,12.33
2023-02-17T14:42:09.129Z,12.50
2023-02-17T14:44:37.465Z,12.48
2023-02-17T14:47:06.260Z,12.36
2023-02-17T14:49:34.636Z,12.44
2023-02-17T14:52:21.027Z,12.42
2023-02-17T14:54:50.097Z,12.50
2023-02-17T14:57:26.143Z,12.51
2023-02-17T14:59:57.674Z,12.59
2023-02-17T15:02:26.188Z,12.52
2023-02-17T15:04:54.691Z,12.50
2023-02-17T15:07:24.518Z,12.48
2023-02-17T15:09:52.660Z,12.51
2023-02-17T15:12:22.186Z,12.59
2023-02-17T15:14:50.334Z,12.60
2023-02-17T15:17:18.282Z,12.69
2023-02-17T15:19:46.116Z,12.77
2023-02-17T15:22:14.746Z,12.82
2023-02-17T15:24:43.945Z,12.83
2023-02-17T15:27:15.012Z,12.65
2023-02-17T15:29:43.191Z,12.81
2023-02-17T15:32:19.029Z,12.75
2023-02-17T15:34:47.085Z,12.72
2023-02-17T15:37:15.055Z,12.57
2023-02-17T15:39:44.634Z,12.63
2023-02-17T15:42:14.470Z,12.70
2023-02-17T15:44:47.741Z,12.72
2023-02-17T15:47:19.807Z,12.58
2023-02-17T15:49:47.856Z,12.76
2023-02-17T15:52:15.668Z,12.80
2023-02-17T15:54:46.112Z,12.77
2023-02-17T15:57:22.219Z,12.69
2023-02-17T15:59:51.218Z,12.78
2023-02-17T16:02:22.497Z,12.85
2023-02-17T16:04:50.626Z,12.85
2023-02-17T16:07:18.449Z,12.75
2023-02-17T16:09:47.644Z,12.75
2023-02-17T16:12:19.044Z,12.82
2023-02-17T16:14:47.214Z,12.83
2023-02-17T16:17:16.599Z,12.87
2023-02-17T16:19:44.552Z,12.87
2023-02-17T16:22:13.166Z,12.80
2023-02-17T16:24:41.079Z,12.78
2023-02-17T16:27:14.833Z,12.82
2023-02-17T16:29:43.503Z,13.10
2023-02-17T16:32:12.683Z,12.97
2023-02-17T16:34:41.005Z,13.01
2023-02-17T16:37:14.979Z,12.92
2023-02-17T16:39:44.379Z,13.02
2023-02-17T16:42:15.524Z,12.96
2023-02-17T16:44:44.195Z,12.86
2023-02-17T16:47:22.346Z,12.88
2023-02-17T16:49:50.496Z,12.91
2023-02-17T16:52:24.999Z,12.97
2023-02-17T16:54:52.975Z,12.95
2023-02-17T16:57:22.857Z,12.90
2023-02-17T16:59:50.801Z,12.86
2023-02-17T17:02:20.260Z,12.93
2023-02-17T17:04:50.354Z,12.97
2023-02-17T17:07:18.144Z,13.02
2023-02-17T17:10:06.773Z,13.03
2023-02-17T17:12:35.235Z,13.10
2023-02-17T17:15:03.506Z,12.99
2023-02-17T17:17:38.791Z,12.86
2023-02-17T17:20:12.239Z,13.01
2023-02-17T17:22:40.403Z,13.01
2023-02-17T17:25:08.574Z,12.98
2023-02-17T17:27:37.799Z,12.87
2023-02-17T17:30:09.758Z,12.87
2023-02-17T17:32:37.610Z,12.98
2023-02-17T17:35:06.482Z,12.95
2023-02-17T17:37:34.606Z,12.84
2023-02-17T17:40:02.652Z,12.93
2023-02-17T17:42:30.653Z,12.87
2023-02-17T17:44:59.831Z,12.74
2023-02-17T17:47:30.466Z,12.59
2023-02-17T17:49:58.480Z,12.64
2023-02-17T17:52:26.397Z,12.74
2023-02-17T17:54:54.263Z,12.61
2023-02-17T17:57:22.602Z,12.56
2023-02-17T17:59:50.596Z,12.51
2023-02-17T18:02:20.192Z,12.53
2023-02-17T18:04:48.453Z,12.51
2023-02-17T18:07:16.877Z,12.51
2023-02-17T18:09:45.269Z,12.47
2023-02-17T18:12:18.707Z,12.36
2023-02-17T18:14:51.670Z,12.17
2023-02-17T18:17:23.258Z,12.18
2023-02-17T18:19:54.900Z,12.19
2023-02-17T18:22:23.001Z,12.13
2023-02-17T18:24:51.202Z,12.11
2023-02-17T18:27:19.138Z,12.22
2023-02-17T18:29:46.934Z,12.10
2023-02-17T18:32:14.894Z,12.06
2023-02-17T18:34:44.128Z,12.16
2023-02-17T18:37:11.990Z,12.06
2023-02-17T18:39:39.972Z,12.09
2023-02-17T18:42:07.790Z,12.09
2023-02-17T18:44:35.756Z,12.13
2023-02-17T18:47:03.737Z,12.07
2023-02-17T18:49:31.547Z,12.06
2023-02-17T18:52:00.687Z,12.12
2023-02-17T18:54:28.508Z,12.10
2023-02-17T18:56:56.521Z,12.03
2023-02-17T18:59:24.321Z,11.94
2023-02-17T19:01:52.101Z,11.84
2023-02-17T19:04:20.188Z,11.75
2023-02-17T19:06:48.204Z,11.78
2023-02-17T19:09:17.393Z,11.84
2023-02-17T19:11:45.120Z,11.67
2023-02-17T19:14:13.066Z,11.58
2023-02-17T19:16:41.180Z,11.46
2023-02-17T19:19:09.271Z,11.46
2023-02-17T19:21:37.471Z,11.46
2023-02-17T19:24:05.605Z,11.38
2023-02-17T19:26:36.723Z,11.48
2023-02-17T19:29:04.693Z,11.39
2023-02-17T19:31:33.469Z,11.34
2023-02-17T19:34:01.985Z,11.42
2023-02-17T19:36:29.976Z,11.54
2023-02-17T19:38:58.463Z,11.50
2023-02-17T19:41:26.419Z,11.48
2023-02-17T19:43:55.729Z,11.50
2023-02-17T19:46:25.700Z,11.51
2023-02-17T19:48:54.098Z,11.57
2023-02-17T19:51:22.583Z,11.49
2023-02-17T19:53:50.890Z,11.57
2023-02-17T19:56:22.375Z,11.41
2023-02-17T19:58:51.372Z,11.31
2023-02-17T20:01:23.512Z,11.47
2023-02-17T20:03:54.591Z,11.53
2023-02-17T20:06:26.608Z,11.67
2023-02-17T20:08:58.551Z,11.67
2023-02-17T20:11:28.597Z,11.67
2023-02-17T20:13:59.212Z,11.73
2023-02-17T20:16:29.799Z,11.76
2023-02-17T20:19:01.621Z,11.81
2023-02-17T20:21:33.886Z,11.78
2023-02-17T20:24:02.200Z,11.68
2023-02-17T20:26:33.301Z,11.72
2023-02-17T20:29:01.766Z,11.68
2023-02-17T20:31:31.621Z,11.62
2023-02-17T20:34:02.981Z,11.66
2023-02-17T20:36:31.331Z,11.81
2023-02-17T20:38:59.436Z,11.82
2023-02-17T20:41:27.716Z,11.78
2023-02-17T20:43:55.795Z,11.81
2023-02-17T20:46:27.888Z,11.81
2023-02-17T20:48:58.707Z,11.90
2023-02-17T20:51:26.684Z,11.95
2023-02-17T20:53:54.777Z,12.03
2023-02-17T20:56:25.483Z,12.01
2023-02-17T20:58:54.850Z,12.03
2023-02-17T21:01:22.924Z,11.95
2023-02-17T21:03:53.255Z,11.98
2023-02-17T21:06:28.537Z,11.84
2023-02-17T21:09:00.166Z,11.80
2023-02-17T21:11:29.023Z,11.77
2023-02-17T21:13:57.247Z,11.81
2023-02-17T21:16:30.944Z,11.83
2023-02-17T21:19:01.012Z,11.85
2023-02-17T21:21:32.294Z,11.86
2023-02-17T21:24:00.571Z,11.81
2023-02-17T21:26:28.741Z,11.79
2023-02-17T21:28:57.256Z,11.78
2023-02-17T21:31:27.868Z,11.74
2023-02-17T21:33:58.510Z,11.74
2023-02-17T21:36:29.079Z,11.61
2023-02-17T21:38:59.227Z,11.67
2023-02-17T21:41:29.910Z,11.68
2023-02-17T21:44:17.363Z,11.61
2023-02-17T21:46:46.652Z,11.56
2023-02-17T21:49:15.117Z,11.53
2023-02-17T21:51:43.904Z,11.65
2023-02-17T21:54:14.053Z,11.55
2023-02-17T21:56:45.814Z,11.62
2023-02-17T21:59:14.236Z,11.61
2023-02-17T22:01:42.755Z,11.66
2023-02-17T22:04:10.960Z,11.48
2023-02-17T22:06:41.793Z,11.54
2023-02-17T22:09:17.845Z,11.62
2023-02-17T22:11:47.216Z,11.65
2023-02-17T22:14:19.002Z,11.58
2023-02-17T22:16:48.968Z,11.39
2023-02-17T22:19:22.188Z,11.48
2023-02-17T22:21:52.139Z,11.40
2023-02-17T22:24:22.665Z,11.40
2023-02-17T22:26:50.952Z,11.40
2023-02-17T22:29:19.274Z,11.36
2023-02-17T22:31:48.996Z,11.34
2023-02-17T22:34:19.736Z,11.35
2023-02-17T22:36:48.294Z,11.35
2023-02-17T22:39:18.062Z,11.24
2023-02-17T22:41:47.891Z,11.33
2023-02-17T22:44:19.381Z,11.27
2023-02-17T22:46:47.764Z,11.19
2023-02-17T22:49:15.803Z,11.25
2023-02-17T22:51:43.908Z,11.06
2023-02-17T22:54:12.020Z,11.03
2023-02-17T22:56:39.912Z,11.12
2023-02-17T22:59:09.166Z,11.06
2023-02-17T23:01:37.306Z,11.01
2023-02-17T23:04:06.192Z,10.97
2023-02-17T23:06:37.560Z,11.02
2023-02-17T23:09:08.549Z,10.92
2023-02-17T23:11:54.445Z,10.91
2023-02-17T23:14:27.542Z,10.97
2023-02-17T23:17:00.121Z,10.85
2023-02-17T23:19:29.764Z,10.95
2023-02-17T23:22:01.148Z,10.78
2023-02-17T23:24:29.295Z,10.80
2023-02-17T23:27:00.274Z,10.77
2023-02-17T23:29:31.217Z,10.84
2023-02-17T23:31:59.369Z,10.84
2023-02-17T23:34:28.447Z,10.84
2023-02-17T23:36:57.115Z,10.92
2023-02-17T23:39:25.992Z,10.97
2023-02-17T23:41:53.863Z,10.97
2023-02-17T23:44:21.747Z,10.92
2023-02-17T23:46:50.792Z,11.01
2023-02-17T23:49:18.679Z,11.05
2023-02-17T23:51:47.236Z,11.01
2023-02-17T23:54:15.458Z,11.08
2023-02-17T23:56:43.644Z,11.12
2023-02-17T23:59:11.984Z,11.13
